Portada
METAR-TAF:

METAR-TAF

Aeroports :

Illes Wake, Estats Units d'Amèrica

latitud: 19-17N, longitud: 166-39E, altitud: 4 m

Observació

L'informe es va fer fa 54 minuts, a les 23:58 UTC
Vent 14 kt del Est
Temperatura 30°C
Humitat 62%
Pressió 1017 hPa
Visibilitat 10 km o més
Cel clar

METAR: PWAK 212358Z AUTO 09014KT 9999 CLR 30/22 A3002 RMK AO2 SLP172 T03030216 10306 20254 50000 $

Hora: 12:52 (00:52 UTC)

Pronòstic

L'informe es va fer fa 2 hores i 52 minuts, a les 22:00 UTC
Pronòstic vàlid del 21 a les 22 UTC al 23 a les 04 UTC
Vent 12 kt del Est
Visibilitat 10 km o més
Núvols disperses a una alçada de 2500 ft
Núvols disperses a una alçada de 5000 ft
Temporalment
l' 22 a les 12 UTC al 22 a les 18 UTC
Visibilitat: 8000 m
Cel ennuvolat a una alçada de 1800 ft
xàfecs de pluja

TAF: PWAK 212200Z 2122/2304 10012KT 9999 SCT025 SCT050 QNH2992INS TEMPO 2212/2218 8000 -SHRA BKN018 TX30/2123Z TN25/2210Z

Observacions i pronòstics meteorològics de més de 4000 aeroports (METAR i TAF).

Les estacions disponibles són els punts grocs i vermells al mapa.

Posi el ratolí al punt desitjat per veure el nom de l'estació.

Feu clic per veure les observacions i els pronòstics meteorològics.

Per canviar el mapa: feu clic els botons verds amb una creu de color negre per apropar; al botó verd amb un guió per allunyar la imatge; o en les fletxes verdes per a mapes adjacents.


METAR-TAF: